sensor_id;sensor_type;location;lat;lon;timestamp;temperature;humidity
19847;DHT22;10084;50.518;8.588;2023-03-31T00:01:40;12.40;89.40
19847;DHT22;10084;50.518;8.588;2023-03-31T00:04:09;12.50;88.00
19847;DHT22;10084;50.518;8.588;2023-03-31T00:06:39;12.40;89.10
19847;DHT22;10084;50.518;8.588;2023-03-31T00:09:11;12.50;89.50
19847;DHT22;10084;50.518;8.588;2023-03-31T00:11:38;12.40;88.80
19847;DHT22;10084;50.518;8.588;2023-03-31T00:14:05;12.50;87.80
19847;DHT22;10084;50.518;8.588;2023-03-31T00:16:35;12.40;88.40
19847;DHT22;10084;50.518;8.588;2023-03-31T00:19:01;12.40;88.90
19847;DHT22;10084;50.518;8.588;2023-03-31T00:21:28;12.40;88.50
19847;DHT22;10084;50.518;8.588;2023-03-31T00:24:05;12.30;88.80
19847;DHT22;10084;50.518;8.588;2023-03-31T00:26:32;12.30;89.20
19847;DHT22;10084;50.518;8.588;2023-03-31T00:28:57;12.20;89.50
19847;DHT22;10084;50.518;8.588;2023-03-31T00:31:24;12.20;88.50
19847;DHT22;10084;50.518;8.588;2023-03-31T00:33:52;12.10;88.70
19847;DHT22;10084;50.518;8.588;2023-03-31T00:36:18;12.10;89.90
19847;DHT22;10084;50.518;8.588;2023-03-31T00:39:00;12.00;90.20
19847;DHT22;10084;50.518;8.588;2023-03-31T00:41:31;12.00;89.40
19847;DHT22;10084;50.518;8.588;2023-03-31T00:44:10;11.90;89.80
19847;DHT22;10084;50.518;8.588;2023-03-31T00:46:50;11.90;90.20
19847;DHT22;10084;50.518;8.588;2023-03-31T00:49:33;11.80;90.80
19847;DHT22;10084;50.518;8.588;2023-03-31T00:52:12;11.70;90.80
19847;DHT22;10084;50.518;8.588;2023-03-31T00:54:39;11.70;91.30
19847;DHT22;10084;50.518;8.588;2023-03-31T00:57:06;11.70;91.30
19847;DHT22;10084;50.518;8.588;2023-03-31T00:59:42;11.60;91.60
19847;DHT22;10084;50.518;8.588;2023-03-31T01:02:12;11.70;92.10
19847;DHT22;10084;50.518;8.588;2023-03-31T01:04:42;11.60;91.50
19847;DHT22;10084;50.518;8.588;2023-03-31T01:07:56;11.60;91.30
19847;DHT22;10084;50.518;8.588;2023-03-31T01:10:03;11.60;91.50
19847;DHT22;10084;50.518;8.588;2023-03-31T01:12:31;11.60;91.80
19847;DHT22;10084;50.518;8.588;2023-03-31T01:14:58;11.60;92.30
19847;DHT22;10084;50.518;8.588;2023-03-31T01:17:25;11.60;92.30
19847;DHT22;10084;50.518;8.588;2023-03-31T01:28:53;11.60;92.50
19847;DHT22;10084;50.518;8.588;2023-03-31T01:31:58;11.60;92.80
19847;DHT22;10084;50.518;8.588;2023-03-31T01:34:42;11.60;92.80
19847;DHT22;10084;50.518;8.588;2023-03-31T01:37:35;11.60;92.70
19847;DHT22;10084;50.518;8.588;2023-03-31T01:48:33;11.60;93.20
19847;DHT22;10084;50.518;8.588;2023-03-31T01:51:09;11.50;92.90
19847;DHT22;10084;50.518;8.588;2023-03-31T01:53:53;11.50;93.20
19847;DHT22;10084;50.518;8.588;2023-03-31T01:56:45;11.50;93.20
19847;DHT22;10084;50.518;8.588;2023-03-31T01:59:20;11.50;93.50
19847;DHT22;10084;50.518;8.588;2023-03-31T02:02:13;11.50;93.50
19847;DHT22;10084;50.518;8.588;2023-03-31T02:04:47;11.50;93.40
19847;DHT22;10084;50.518;8.588;2023-03-31T02:07:26;11.50;93.40
19847;DHT22;10084;50.518;8.588;2023-03-31T02:09:57;11.50;93.50
19847;DHT22;10084;50.518;8.588;2023-03-31T02:12:27;11.50;93.70
19847;DHT22;10084;50.518;8.588;2023-03-31T02:14:55;11.50;93.70
19847;DHT22;10084;50.518;8.588;2023-03-31T02:17:24;11.50;93.90
19847;DHT22;10084;50.518;8.588;2023-03-31T02:19:58;11.50;93.70
19847;DHT22;10084;50.518;8.588;2023-03-31T02:22:30;11.50;93.90
19847;DHT22;10084;50.518;8.588;2023-03-31T02:24:59;11.50;94.10
19847;DHT22;10084;50.518;8.588;2023-03-31T02:27:38;11.50;94.00
19847;DHT22;10084;50.518;8.588;2023-03-31T02:30:05;11.60;93.90
19847;DHT22;10084;50.518;8.588;2023-03-31T02:32:40;11.50;94.00
19847;DHT22;10084;50.518;8.588;2023-03-31T02:35:16;11.50;94.00
19847;DHT22;10084;50.518;8.588;2023-03-31T02:37:44;11.60;92.60
19847;DHT22;10084;50.518;8.588;2023-03-31T02:40:17;11.50;92.70
19847;DHT22;10084;50.518;8.588;2023-03-31T02:42:44;11.60;92.80
19847;DHT22;10084;50.518;8.588;2023-03-31T02:45:40;11.60;92.70
19847;DHT22;10084;50.518;8.588;2023-03-31T02:48:10;11.60;93.00
19847;DHT22;10084;50.518;8.588;2023-03-31T02:56:34;11.60;93.40
19847;DHT22;10084;50.518;8.588;2023-03-31T02:59:13;11.60;93.90
19847;DHT22;10084;50.518;8.588;2023-03-31T03:05:17;11.60;93.70
19847;DHT22;10084;50.518;8.588;2023-03-31T03:10:58;11.60;93.70
19847;DHT22;10084;50.518;8.588;2023-03-31T03:19:07;11.60;93.80
19847;DHT22;10084;50.518;8.588;2023-03-31T03:21:33;11.60;93.90
19847;DHT22;10084;50.518;8.588;2023-03-31T03:23:59;11.60;93.90
19847;DHT22;10084;50.518;8.588;2023-03-31T03:26:26;11.60;93.90
19847;DHT22;10084;50.518;8.588;2023-03-31T03:28:56;11.60;94.00
19847;DHT22;10084;50.518;8.588;2023-03-31T03:31:22;11.70;93.90
19847;DHT22;10084;50.518;8.588;2023-03-31T03:33:51;11.60;93.70
19847;DHT22;10084;50.518;8.588;2023-03-31T03:36:17;11.60;94.00
19847;DHT22;10084;50.518;8.588;2023-03-31T03:38:43;11.60;93.60
19847;DHT22;10084;50.518;8.588;2023-03-31T03:41:09;11.50;93.40
19847;DHT22;10084;50.518;8.588;2023-03-31T03:43:34;11.50;93.70
19847;DHT22;10084;50.518;8.588;2023-03-31T03:46:00;11.40;94.20
19847;DHT22;10084;50.518;8.588;2023-03-31T03:48:26;11.40;94.70
19847;DHT22;10084;50.518;8.588;2023-03-31T03:50:52;11.40;94.40
19847;DHT22;10084;50.518;8.588;2023-03-31T03:53:19;11.30;95.00
19847;DHT22;10084;50.518;8.588;2023-03-31T03:55:45;11.30;95.10
19847;DHT22;10084;50.518;8.588;2023-03-31T03:58:14;11.30;94.90
19847;DHT22;10084;50.518;8.588;2023-03-31T04:00:40;11.30;95.20
19847;DHT22;10084;50.518;8.588;2023-03-31T04:03:06;11.30;95.60
19847;DHT22;10084;50.518;8.588;2023-03-31T04:05:32;11.40;95.00
19847;DHT22;10084;50.518;8.588;2023-03-31T04:07:57;11.40;94.30
19847;DHT22;10084;50.518;8.588;2023-03-31T04:10:23;11.30;94.30
19847;DHT22;10084;50.518;8.588;2023-03-31T04:12:49;11.30;94.90
19847;DHT22;10084;50.518;8.588;2023-03-31T04:15:15;11.20;94.70
19847;DHT22;10084;50.518;8.588;2023-03-31T04:17:40;11.20;94.90
19847;DHT22;10084;50.518;8.588;2023-03-31T04:20:10;11.20;95.90
19847;DHT22;10084;50.518;8.588;2023-03-31T04:22:36;11.20;96.60
19847;DHT22;10084;50.518;8.588;2023-03-31T04:25:10;11.10;97.50
19847;DHT22;10084;50.518;8.588;2023-03-31T04:27:50;11.10;98.10
19847;DHT22;10084;50.518;8.588;2023-03-31T04:30:23;11.10;98.20
19847;DHT22;10084;50.518;8.588;2023-03-31T04:32:56;11.10;98.60
19847;DHT22;10084;50.518;8.588;2023-03-31T04:35:24;11.10;99.10
19847;DHT22;10084;50.518;8.588;2023-03-31T04:37:51;11.10;98.60
19847;DHT22;10084;50.518;8.588;2023-03-31T04:40:24;11.10;99.10
19847;DHT22;10084;50.518;8.588;2023-03-31T04:42:50;11.10;99.00
19847;DHT22;10084;50.518;8.588;2023-03-31T04:45:17;11.10;98.50
19847;DHT22;10084;50.518;8.588;2023-03-31T04:47:42;11.10;98.30
19847;DHT22;10084;50.518;8.588;2023-03-31T04:50:09;11.10;98.30
19847;DHT22;10084;50.518;8.588;2023-03-31T04:52:36;11.10;98.30
19847;DHT22;10084;50.518;8.588;2023-03-31T04:55:02;11.10;98.30
19847;DHT22;10084;50.518;8.588;2023-03-31T04:57:28;11.10;98.30
19847;DHT22;10084;50.518;8.588;2023-03-31T04:59:53;11.10;98.50
19847;DHT22;10084;50.518;8.588;2023-03-31T05:02:19;11.00;98.90
19847;DHT22;10084;50.518;8.588;2023-03-31T05:09:45;11.00;99.10
19847;DHT22;10084;50.518;8.588;2023-03-31T05:12:11;11.00;99.80
19847;DHT22;10084;50.518;8.588;2023-03-31T05:14:37;11.10;99.30
19847;DHT22;10084;50.518;8.588;2023-03-31T05:17:02;10.90;99.90
19847;DHT22;10084;50.518;8.588;2023-03-31T05:21:56;11.00;99.30
19847;DHT22;10084;50.518;8.588;2023-03-31T05:24:21;11.00;99.40
19847;DHT22;10084;50.518;8.588;2023-03-31T05:26:47;11.10;99.50
19847;DHT22;10084;50.518;8.588;2023-03-31T05:29:20;11.10;99.90
19847;DHT22;10084;50.518;8.588;2023-03-31T05:31:46;11.10;99.20
19847;DHT22;10084;50.518;8.588;2023-03-31T05:34:13;11.10;99.10
19847;DHT22;10084;50.518;8.588;2023-03-31T05:36:39;11.10;98.90
19847;DHT22;10084;50.518;8.588;2023-03-31T05:39:05;11.10;99.10
19847;DHT22;10084;50.518;8.588;2023-03-31T05:41:32;11.10;99.50
19847;DHT22;10084;50.518;8.588;2023-03-31T05:43:58;11.10;99.90
19847;DHT22;10084;50.518;8.588;2023-03-31T05:48:51;11.00;99.90
19847;DHT22;10084;50.518;8.588;2023-03-31T05:51:17;11.10;99.90
19847;DHT22;10084;50.518;8.588;2023-03-31T05:53:43;11.10;98.70
19847;DHT22;10084;50.518;8.588;2023-03-31T05:56:09;11.10;98.70
19847;DHT22;10084;50.518;8.588;2023-03-31T05:58:37;11.00;98.70
19847;DHT22;10084;50.518;8.588;2023-03-31T06:01:08;11.00;98.90
19847;DHT22;10084;50.518;8.588;2023-03-31T06:03:35;11.00;95.10
19847;DHT22;10084;50.518;8.588;2023-03-31T06:06:02;11.00;95.30
19847;DHT22;10084;50.518;8.588;2023-03-31T06:08:30;10.90;95.90
19847;DHT22;10084;50.518;8.588;2023-03-31T06:10:56;10.90;96.40
19847;DHT22;10084;50.518;8.588;2023-03-31T06:13:22;10.90;96.60
19847;DHT22;10084;50.518;8.588;2023-03-31T06:15:56;10.90;96.20
19847;DHT22;10084;50.518;8.588;2023-03-31T06:18:22;10.90;96.40
19847;DHT22;10084;50.518;8.588;2023-03-31T06:20:48;10.90;96.00
19847;DHT22;10084;50.518;8.588;2023-03-31T06:23:15;10.80;96.10
19847;DHT22;10084;50.518;8.588;2023-03-31T06:25:40;10.80;96.80
19847;DHT22;10084;50.518;8.588;2023-03-31T06:28:06;10.80;96.40
19847;DHT22;10084;50.518;8.588;2023-03-31T06:30:32;10.80;97.40
19847;DHT22;10084;50.518;8.588;2023-03-31T06:32:58;10.70;97.40
19847;DHT22;10084;50.518;8.588;2023-03-31T06:35:24;10.70;97.40
19847;DHT22;10084;50.518;8.588;2023-03-31T06:37:50;10.60;97.10
19847;DHT22;10084;50.518;8.588;2023-03-31T06:40:16;10.60;97.50
19847;DHT22;10084;50.518;8.588;2023-03-31T06:42:41;10.50;97.30
19847;DHT22;10084;50.518;8.588;2023-03-31T06:45:07;10.50;98.10
19847;DHT22;10084;50.518;8.588;2023-03-31T06:47:33;10.50;97.80
19847;DHT22;10084;50.518;8.588;2023-03-31T06:49:59;10.50;97.50
19847;DHT22;10084;50.518;8.588;2023-03-31T06:52:25;10.50;96.70
19847;DHT22;10084;50.518;8.588;2023-03-31T06:54:50;10.50;97.00
19847;DHT22;10084;50.518;8.588;2023-03-31T06:57:16;10.60;97.20
19847;DHT22;10084;50.518;8.588;2023-03-31T06:59:42;10.60;97.20
19847;DHT22;10084;50.518;8.588;2023-03-31T07:02:09;10.70;97.00
19847;DHT22;10084;50.518;8.588;2023-03-31T07:04:35;10.70;97.80
19847;DHT22;10084;50.518;8.588;2023-03-31T07:07:00;10.70;97.30
19847;DHT22;10084;50.518;8.588;2023-03-31T07:09:26;10.80;96.30
19847;DHT22;10084;50.518;8.588;2023-03-31T07:11:52;10.80;96.10
19847;DHT22;10084;50.518;8.588;2023-03-31T07:14:17;10.80;96.20
19847;DHT22;10084;50.518;8.588;2023-03-31T07:16:43;10.80;96.10
19847;DHT22;10084;50.518;8.588;2023-03-31T07:19:09;10.80;96.00
19847;DHT22;10084;50.518;8.588;2023-03-31T07:21:36;10.80;96.10
19847;DHT22;10084;50.518;8.588;2023-03-31T07:24:02;10.70;96.10
19847;DHT22;10084;50.518;8.588;2023-03-31T07:26:28;10.60;96.10
19847;DHT22;10084;50.518;8.588;2023-03-31T07:28:53;10.50;96.40
19847;DHT22;10084;50.518;8.588;2023-03-31T07:31:22;10.50;97.20
19847;DHT22;10084;50.518;8.588;2023-03-31T07:33:48;10.40;97.80
19847;DHT22;10084;50.518;8.588;2023-03-31T07:36:14;10.40;97.80
19847;DHT22;10084;50.518;8.588;2023-03-31T07:38:45;10.40;98.10
19847;DHT22;10084;50.518;8.588;2023-03-31T07:41:13;10.40;98.50
19847;DHT22;10084;50.518;8.588;2023-03-31T07:43:39;10.50;98.90
19847;DHT22;10084;50.518;8.588;2023-03-31T07:46:05;10.50;99.90
19847;DHT22;10084;50.518;8.588;2023-03-31T07:48:32;10.60;99.90
19847;DHT22;10084;50.518;8.588;2023-03-31T07:50:59;10.70;99.90
19847;DHT22;10084;50.518;8.588;2023-03-31T07:53:30;10.80;99.90
19847;DHT22;10084;50.518;8.588;2023-03-31T07:55:56;10.90;99.90
19847;DHT22;10084;50.518;8.588;2023-03-31T07:58:21;11.00;99.00
19847;DHT22;10084;50.518;8.588;2023-03-31T08:00:47;11.00;98.90
19847;DHT22;10084;50.518;8.588;2023-03-31T08:03:13;11.00;98.80
19847;DHT22;10084;50.518;8.588;2023-03-31T08:05:38;11.00;98.90
19847;DHT22;10084;50.518;8.588;2023-03-31T08:08:04;11.00;99.30
19847;DHT22;10084;50.518;8.588;2023-03-31T08:10:30;11.10;99.90
19847;DHT22;10084;50.518;8.588;2023-03-31T08:12:55;11.20;99.90
19847;DHT22;10084;50.518;8.588;2023-03-31T08:15:22;11.30;99.90
19847;DHT22;10084;50.518;8.588;2023-03-31T08:17:47;11.50;99.90
19847;DHT22;10084;50.518;8.588;2023-03-31T08:20:13;11.70;99.90
19847;DHT22;10084;50.518;8.588;2023-03-31T08:22:39;11.90;99.90
19847;DHT22;10084;50.518;8.588;2023-03-31T08:25:06;12.10;99.90
19847;DHT22;10084;50.518;8.588;2023-03-31T08:27:37;12.20;99.90
19847;DHT22;10084;50.518;8.588;2023-03-31T08:30:05;12.50;99.90
19847;DHT22;10084;50.518;8.588;2023-03-31T08:32:32;12.70;99.90
19847;DHT22;10084;50.518;8.588;2023-03-31T08:34:58;13.10;99.90
19847;DHT22;10084;50.518;8.588;2023-03-31T09:25:46;22.10;95.00
19847;DHT22;10084;50.518;8.588;2023-03-31T09:51:22;21.70;96.70
